createdAt,value
2022-09-24T00:01:24.133Z,14.52
2022-09-24T00:04:27.645Z,10.93
2022-09-24T00:07:28.715Z,13.40
2022-09-24T00:10:29.846Z,19.23
2022-09-24T00:13:32.766Z,12.20
2022-09-24T00:16:34.861Z,11.77
2022-09-24T00:19:36.022Z,11.02
2022-09-24T00:22:37.039Z,16.95
2022-09-24T00:26:24.907Z,13.05
2022-09-24T00:29:26.523Z,10.95
2022-09-24T00:32:27.690Z,9.35
2022-09-24T00:35:28.680Z,13.73
2022-09-24T00:38:30.456Z,9.82
2022-09-24T00:41:34.808Z,13.93
2022-09-24T00:44:49.149Z,10.98
2022-09-24T00:47:53.632Z,13.90
2022-09-24T00:50:55.562Z,8.65
2022-09-24T00:54:06.638Z,9.30
2022-09-24T00:57:08.078Z,8.48
2022-09-24T01:00:10.651Z,12.18
2022-09-24T01:03:21.179Z,8.93
2022-09-24T01:06:22.217Z,8.95
2022-09-24T01:09:26.683Z,9.65
2022-09-24T01:13:02.582Z,9.50
2022-09-24T01:16:55.143Z,9.10
2022-09-24T01:20:47.127Z,10.18
2022-09-24T01:24:26.184Z,7.85
2022-09-24T01:28:14.064Z,8.38
2022-09-24T01:31:25.498Z,8.95
2022-09-24T01:34:48.130Z,9.52
2022-09-24T01:37:56.935Z,9.55
2022-09-24T01:41:03.335Z,8.80
2022-09-24T01:44:07.786Z,13.35
2022-09-24T01:47:13.247Z,10.05
2022-09-24T01:50:19.042Z,9.43
2022-09-24T01:53:26.998Z,9.40
2022-09-24T01:56:38.605Z,8.88
2022-09-24T01:59:51.904Z,8.80
2022-09-24T02:03:15.175Z,7.40
2022-09-24T02:06:36.578Z,9.80
2022-09-24T02:09:41.688Z,9.35
2022-09-24T02:12:49.835Z,12.52
2022-09-24T02:15:58.627Z,9.63
2022-09-24T02:19:10.363Z,10.82
2022-09-24T02:22:14.605Z,10.98
2022-09-24T02:25:22.455Z,12.00
2022-09-24T02:28:23.265Z,13.38
2022-09-24T02:31:37.465Z,14.68
2022-09-24T02:34:47.335Z,14.38
2022-09-24T02:37:48.332Z,15.93
2022-09-24T02:40:50.987Z,17.00
2022-09-24T02:43:52.815Z,15.25
2022-09-24T02:46:53.865Z,15.55
2022-09-24T02:49:56.172Z,17.80
2022-09-24T02:52:56.875Z,19.58
2022-09-24T02:56:00.991Z,18.45
2022-09-24T02:59:02.981Z,19.90
2022-09-24T03:02:04.251Z,18.73
2022-09-24T03:05:05.562Z,17.73
2022-09-24T03:08:07.718Z,21.30
2022-09-24T03:11:15.085Z,20.10
2022-09-24T03:14:18.966Z,21.20
2022-09-24T03:17:20.179Z,22.73
2022-09-24T03:20:21.050Z,22.67
2022-09-24T03:23:21.836Z,28.92
2022-09-24T03:26:22.798Z,39.53
2022-09-24T03:29:43.721Z,37.78
2022-09-24T03:32:44.789Z,40.03
2022-09-24T03:35:45.660Z,36.78
2022-09-24T03:38:48.628Z,34.45
2022-09-24T03:41:49.682Z,38.92
2022-09-24T03:44:53.143Z,32.42
2022-09-24T03:47:54.840Z,34.33
2022-09-24T03:50:56.142Z,31.58
2022-09-24T03:53:56.976Z,34.00
2022-09-24T03:56:57.682Z,28.00
2022-09-24T03:59:59.543Z,27.90
2022-09-24T04:03:00.216Z,25.95
2022-09-24T04:06:00.954Z,28.52
2022-09-24T04:09:01.739Z,28.77
2022-09-24T04:12:02.652Z,32.45
2022-09-24T04:15:04.958Z,29.80
2022-09-24T04:18:06.339Z,37.67
2022-09-24T04:21:07.732Z,39.63
2022-09-24T04:24:08.891Z,34.17
2022-09-24T04:27:10.054Z,33.22
2022-09-24T04:30:13.728Z,38.05
2022-09-24T04:33:14.594Z,33.58
2022-09-24T04:36:16.028Z,41.00
2022-09-24T04:39:17.202Z,36.58
2022-09-24T04:42:18.988Z,38.60
2022-09-24T04:45:21.167Z,35.42
2022-09-24T04:48:22.436Z,35.63
2022-09-24T04:51:23.541Z,34.75
2022-09-24T04:54:25.693Z,37.88
2022-09-24T04:57:28.837Z,28.52
2022-09-24T05:00:31.784Z,25.15
2022-09-24T05:03:33.303Z,27.45
2022-09-24T05:06:34.246Z,23.33
2022-09-24T05:09:35.150Z,31.95
2022-09-24T05:12:36.679Z,22.25
2022-09-24T05:15:42.866Z,18.05
2022-09-24T05:18:44.149Z,16.27
2022-09-24T05:21:45.253Z,16.00
2022-09-24T05:24:45.967Z,14.43
2022-09-24T05:27:50.108Z,14.35
2022-09-24T05:30:51.148Z,14.85
2022-09-24T05:33:52.006Z,17.50
2022-09-24T05:36:53.187Z,18.00
2022-09-24T05:39:54.987Z,15.95
2022-09-24T05:43:04.932Z,17.88
2022-09-24T05:46:06.570Z,17.05
2022-09-24T05:49:07.562Z,16.17
2022-09-24T05:52:08.600Z,13.18
2022-09-24T05:55:10.807Z,13.38
2022-09-24T05:58:14.535Z,13.25
2022-09-24T06:01:15.406Z,14.63
2022-09-24T06:04:17.180Z,14.40
2022-09-24T06:07:18.094Z,17.90
2022-09-24T06:10:19.064Z,16.70
2022-09-24T06:13:21.143Z,16.27
2022-09-24T06:16:21.825Z,14.25
2022-09-24T06:19:23.550Z,15.27
2022-09-24T06:22:28.405Z,16.85
2022-09-24T06:25:31.249Z,16.05
2022-09-24T06:28:32.228Z,16.92
2022-09-24T06:31:34.381Z,17.17
2022-09-24T06:34:35.234Z,15.73
2022-09-24T06:37:36.621Z,17.50
2022-09-24T06:40:39.310Z,15.30
2022-09-24T06:43:40.399Z,13.95
2022-09-24T06:46:41.304Z,14.65
2022-09-24T06:49:42.595Z,15.57
2022-09-24T06:52:43.910Z,13.52
2022-09-24T06:55:46.939Z,14.13
2022-09-24T06:58:48.001Z,15.07
2022-09-24T07:01:48.824Z,14.82
2022-09-24T07:04:49.728Z,17.20
2022-09-24T07:07:50.427Z,17.33
2022-09-24T07:10:52.671Z,16.45
2022-09-24T07:13:53.659Z,15.95
2022-09-24T07:16:54.627Z,15.93
2022-09-24T07:19:56.007Z,16.23
2022-09-24T07:22:57.125Z,17.83
2022-09-24T07:25:59.275Z,15.60
2022-09-24T07:29:00.652Z,19.20
2022-09-24T07:32:03.498Z,16.52
2022-09-24T07:35:05.334Z,16.23
2022-09-24T07:38:12.525Z,18.38
2022-09-24T07:41:13.496Z,15.90
2022-09-24T07:44:14.302Z,15.40
2022-09-24T07:47:15.964Z,14.77
2022-09-24T07:50:18.500Z,18.27
2022-09-24T07:53:19.821Z,17.08
2022-09-24T07:56:22.009Z,17.20
2022-09-24T07:59:23.073Z,16.55
2022-09-24T08:02:25.115Z,14.07
2022-09-24T08:05:26.502Z,13.77
2022-09-24T08:08:27.884Z,14.20
2022-09-24T08:11:29.844Z,14.65
2022-09-24T08:14:30.885Z,12.98
2022-09-24T08:17:32.231Z,13.45
2022-09-24T08:20:34.435Z,13.25
2022-09-24T08:23:36.599Z,12.88
2022-09-24T08:26:37.688Z,14.00
2022-09-24T08:29:40.558Z,12.77
2022-09-24T08:32:49.116Z,12.60
2022-09-24T08:35:50.754Z,13.25
2022-09-24T08:38:55.395Z,12.27
2022-09-24T08:42:02.792Z,13.07
2022-09-24T08:45:25.703Z,13.18
2022-09-24T08:48:33.959Z,14.55
2022-09-24T08:51:51.337Z,14.70
2022-09-24T08:54:57.032Z,14.20
2022-09-24T08:58:38.171Z,12.60
2022-09-24T09:01:53.921Z,13.38
2022-09-24T09:04:58.163Z,14.88
2022-09-24T09:08:27.259Z,12.98
2022-09-24T09:11:33.570Z,13.07
2022-09-24T09:15:04.066Z,14.95
2022-09-24T09:18:37.798Z,13.20
2022-09-24T09:21:52.691Z,12.98
2022-09-24T09:25:03.512Z,9.45
2022-09-24T09:28:25.791Z,10.77
2022-09-24T09:31:47.152Z,12.02
2022-09-24T09:35:16.237Z,10.95
2022-09-24T09:38:38.563Z,10.23
2022-09-24T09:41:47.145Z,10.35
2022-09-24T09:44:48.746Z,9.55
2022-09-24T09:47:55.604Z,9.23
2022-09-24T09:51:05.157Z,9.40
2022-09-24T09:54:06.679Z,8.70
2022-09-24T09:57:15.385Z,9.55
2022-09-24T10:00:34.792Z,8.25
2022-09-24T10:03:47.055Z,8.40
2022-09-24T10:06:47.789Z,8.65
2022-09-24T10:10:15.138Z,8.15
2022-09-24T10:16:17.475Z,9.77
2022-09-24T10:19:27.899Z,8.70
2022-09-24T10:22:30.790Z,7.70
2022-09-24T10:25:34.180Z,7.85
2022-09-24T10:29:04.012Z,8.85
2022-09-24T10:32:07.189Z,7.38
2022-09-24T10:35:32.574Z,9.98
2022-09-24T10:38:34.480Z,9.32
2022-09-24T10:41:36.128Z,7.13
2022-09-24T10:44:37.813Z,8.75
2022-09-24T10:48:24.605Z,9.23
2022-09-24T10:51:46.945Z,9.10
2022-09-24T10:55:06.465Z,8.65
2022-09-24T10:58:29.749Z,7.25
2022-09-24T11:02:10.255Z,9.50
2022-09-24T11:05:23.759Z,6.13
2022-09-24T11:08:59.062Z,5.88
2022-09-24T11:12:39.925Z,6.95
2022-09-24T11:15:55.740Z,7.03
2022-09-24T11:19:18.124Z,5.95
2022-09-24T11:22:40.171Z,5.72
2022-09-24T11:26:04.202Z,5.40
2022-09-24T11:29:49.230Z,6.65
2022-09-24T11:33:28.475Z,5.88
2022-09-24T11:36:35.726Z,5.78
2022-09-24T11:40:33.342Z,5.28
2022-09-24T11:44:03.065Z,4.88
2022-09-24T11:47:22.113Z,4.03
2022-09-24T11:50:29.022Z,3.50
2022-09-24T11:53:55.068Z,3.40
2022-09-24T11:57:03.736Z,3.97
2022-09-24T12:00:20.376Z,4.60
2022-09-24T12:03:35.149Z,5.40
2022-09-24T12:06:58.095Z,4.93
2022-09-24T12:10:30.014Z,4.05
2022-09-24T12:13:41.325Z,5.25
2022-09-24T12:16:47.839Z,4.20
2022-09-24T12:20:02.169Z,3.30
2022-09-24T12:23:11.563Z,3.85
2022-09-24T12:26:17.173Z,4.32
2022-09-24T12:30:16.414Z,5.72
2022-09-24T12:33:45.838Z,4.25
2022-09-24T12:37:09.188Z,4.88
2022-09-24T12:40:22.619Z,4.45
2022-09-24T12:43:41.348Z,4.32
2022-09-24T12:46:58.759Z,4.03
2022-09-24T12:50:05.204Z,6.03
2022-09-24T12:53:24.956Z,4.13
2022-09-24T12:56:30.155Z,3.28
2022-09-24T12:59:31.395Z,4.30
2022-09-24T13:02:46.922Z,4.32
2022-09-24T13:05:48.967Z,4.47
2022-09-24T13:08:50.736Z,4.00
2022-09-24T13:12:20.927Z,3.92
2022-09-24T13:15:34.696Z,4.20
2022-09-24T13:18:37.533Z,4.10
2022-09-24T13:21:40.865Z,3.45
2022-09-24T13:25:09.303Z,4.22
2022-09-24T13:28:37.736Z,7.05
2022-09-24T13:31:52.479Z,3.47
2022-09-24T13:34:54.871Z,4.45
2022-09-24T13:38:29.336Z,4.20
2022-09-24T13:41:36.272Z,4.07
2022-09-24T13:45:16.071Z,3.67
2022-09-24T13:48:50.494Z,3.90
2022-09-24T13:52:49.999Z,4.18
2022-09-24T13:55:59.556Z,4.85
2022-09-24T13:59:12.913Z,3.42
2022-09-24T14:02:26.334Z,3.63
2022-09-24T14:05:29.309Z,3.65
2022-09-24T14:08:30.528Z,4.07
2022-09-24T14:11:31.150Z,5.95
2022-09-24T14:14:35.769Z,4.40
2022-09-24T14:17:36.520Z,3.50
2022-09-24T14:20:37.407Z,3.83
2022-09-24T14:24:04.367Z,3.42
2022-09-24T14:27:13.053Z,5.70
2022-09-24T14:30:26.926Z,3.30
2022-09-24T14:33:33.003Z,3.58
2022-09-24T14:36:36.743Z,4.22
2022-09-24T14:39:43.760Z,4.65
2022-09-24T14:45:52.476Z,4.60
2022-09-24T14:49:20.428Z,3.75
2022-09-24T14:52:39.773Z,4.18
2022-09-24T14:55:45.531Z,4.30
2022-09-24T14:58:46.613Z,4.47
2022-09-24T15:01:47.882Z,3.95
2022-09-24T15:05:00.713Z,4.75
2022-09-24T15:08:24.818Z,4.15
2022-09-24T15:11:29.361Z,4.80
2022-09-24T15:14:34.613Z,4.50
2022-09-24T15:17:36.506Z,3.88
2022-09-24T15:20:38.827Z,4.55
2022-09-24T15:23:39.956Z,4.95
2022-09-24T15:26:45.723Z,9.13
2022-09-24T15:29:47.203Z,7.43
2022-09-24T15:32:52.537Z,8.45
2022-09-24T15:35:54.217Z,8.75
2022-09-24T15:39:02.031Z,8.70
2022-09-24T15:42:03.342Z,9.90
2022-09-24T15:45:22.631Z,10.68
2022-09-24T15:48:23.647Z,9.48
2022-09-24T15:51:24.656Z,10.48
2022-09-24T15:54:25.576Z,12.88
2022-09-24T15:57:26.917Z,10.88
2022-09-24T16:00:28.630Z,10.70
2022-09-24T16:03:32.807Z,12.63
2022-09-24T16:06:33.941Z,12.95
2022-09-24T16:09:34.676Z,12.10
2022-09-24T16:12:36.340Z,11.88
2022-09-24T16:15:38.484Z,14.05
2022-09-24T16:18:40.880Z,12.35
2022-09-24T16:21:41.997Z,11.65
2022-09-24T16:24:42.764Z,18.45
2022-09-24T16:27:44.154Z,12.57
2022-09-24T16:30:45.185Z,12.73
2022-09-24T16:33:47.094Z,13.75
2022-09-24T16:36:48.156Z,14.73
2022-09-24T16:39:49.107Z,13.60
2022-09-24T16:42:49.988Z,13.23
2022-09-24T16:45:51.391Z,13.23
2022-09-24T16:48:52.556Z,13.30
2022-09-24T16:51:53.961Z,13.48
2022-09-24T16:54:55.012Z,14.70
2022-09-24T16:57:55.945Z,14.30
2022-09-24T17:00:56.671Z,14.38
2022-09-24T17:03:58.920Z,16.10
2022-09-24T17:06:59.840Z,14.50
2022-09-24T17:10:16.266Z,16.27
2022-09-24T17:13:18.282Z,14.73
2022-09-24T17:16:19.430Z,23.42
2022-09-24T17:19:20.452Z,15.88
2022-09-24T17:22:21.209Z,17.02
2022-09-24T17:25:22.047Z,15.82
2022-09-24T17:28:22.909Z,17.42
2022-09-24T17:31:25.867Z,19.27
2022-09-24T17:34:27.653Z,18.95
2022-09-24T17:37:29.287Z,18.35
2022-09-24T17:40:30.455Z,19.00
2022-09-24T17:43:31.508Z,17.80
2022-09-24T17:46:35.554Z,17.65
2022-09-24T17:49:36.271Z,16.10
2022-09-24T17:52:36.955Z,18.77
2022-09-24T17:55:38.055Z,22.48
2022-09-24T17:58:42.264Z,21.42
2022-09-24T18:01:44.979Z,26.38
2022-09-24T18:04:46.511Z,24.17
2022-09-24T18:07:47.264Z,24.00
2022-09-24T18:11:03.710Z,26.88
2022-09-24T18:14:04.827Z,24.23
2022-09-24T18:17:06.619Z,27.77
2022-09-24T18:20:07.908Z,27.33
2022-09-24T18:23:08.753Z,33.70
2022-09-24T18:26:17.587Z,32.83
2022-09-24T18:29:19.356Z,34.63
2022-09-24T18:32:20.631Z,35.35
2022-09-24T18:35:21.496Z,39.03
2022-09-24T18:38:22.430Z,34.85
2022-09-24T18:41:27.633Z,34.20
2022-09-24T18:44:28.911Z,37.67
2022-09-24T18:47:29.697Z,41.72
2022-09-24T18:50:30.616Z,38.55
2022-09-24T18:53:32.240Z,43.13
2022-09-24T18:56:34.397Z,42.60
2022-09-24T18:59:44.281Z,41.05
2022-09-24T19:02:45.311Z,45.50
2022-09-24T19:05:47.787Z,48.13
2022-09-24T19:08:49.284Z,51.13
2022-09-24T19:11:50.376Z,47.53
2022-09-24T19:14:54.250Z,46.22
2022-09-24T19:17:55.523Z,50.45
2022-09-24T19:20:57.486Z,52.58
2022-09-24T19:24:00.043Z,48.85
2022-09-24T19:27:01.172Z,50.60
2022-09-24T19:30:01.848Z,51.33
2022-09-24T19:33:03.210Z,49.05
2022-09-24T19:36:04.765Z,46.55
2022-09-24T19:39:05.897Z,47.08
2022-09-24T19:42:07.504Z,55.03
2022-09-24T19:45:09.033Z,60.03
2022-09-24T19:48:10.389Z,54.10
2022-09-24T19:51:31.033Z,55.17
2022-09-24T19:54:31.739Z,58.40
2022-09-24T19:57:35.808Z,54.50
2022-09-24T20:00:39.116Z,46.42
2022-09-24T20:03:40.483Z,41.05
2022-09-24T20:06:41.743Z,49.65
2022-09-24T20:09:42.581Z,58.45
2022-09-24T20:12:46.756Z,57.75
2022-09-24T20:15:47.741Z,51.70
2022-09-24T20:18:51.047Z,68.28
2022-09-24T20:21:53.248Z,74.53
2022-09-24T20:24:54.210Z,67.22
2022-09-24T20:27:55.568Z,67.22
2022-09-24T20:30:56.707Z,56.67
2022-09-24T20:33:57.703Z,52.83
2022-09-24T20:37:01.044Z,53.92
2022-09-24T20:40:02.504Z,49.42
2022-09-24T20:43:04.176Z,65.38
2022-09-24T20:46:32.024Z,63.88
2022-09-24T20:49:34.914Z,43.42
2022-09-24T20:52:36.538Z,49.85
2022-09-24T20:55:39.615Z,39.95
2022-09-24T20:58:41.996Z,38.78
2022-09-24T21:01:44.883Z,38.67
2022-09-24T21:04:45.958Z,38.70
2022-09-24T21:07:46.951Z,49.58
2022-09-24T21:10:47.666Z,48.70
2022-09-24T21:13:52.228Z,55.42
2022-09-24T21:16:55.249Z,54.35
2022-09-24T21:19:56.556Z,52.65
2022-09-24T21:22:59.441Z,57.47
2022-09-24T21:26:24.103Z,47.28
2022-09-24T21:29:25.159Z,48.95
2022-09-24T21:32:25.875Z,51.33
2022-09-24T21:35:27.174Z,50.83
2022-09-24T21:38:28.402Z,45.40
2022-09-24T21:41:37.522Z,41.42
2022-09-24T21:44:38.901Z,38.88
2022-09-24T21:47:40.207Z,48.17
2022-09-24T21:50:40.917Z,47.65
2022-09-24T21:53:41.718Z,53.58
2022-09-24T21:56:43.206Z,53.30
2022-09-24T22:00:04.048Z,44.65
2022-09-24T22:03:05.973Z,53.15
2022-09-24T22:06:07.147Z,54.45
2022-09-24T22:09:09.237Z,47.22
2022-09-24T22:12:10.511Z,50.13
2022-09-24T22:15:11.381Z,43.10
2022-09-24T22:18:12.276Z,47.92
2022-09-24T22:21:15.042Z,45.40
2022-09-24T22:24:16.272Z,41.40
2022-09-24T22:27:17.516Z,34.92
2022-09-24T22:30:18.848Z,33.00
2022-09-24T22:33:38.993Z,27.23
2022-09-24T22:36:40.638Z,24.98
2022-09-24T22:39:41.414Z,21.40
2022-09-24T22:42:42.133Z,21.60
2022-09-24T22:45:43.769Z,22.70
2022-09-24T22:48:45.603Z,21.77
2022-09-24T22:51:46.592Z,18.13
2022-09-24T22:54:47.458Z,19.50
2022-09-24T22:57:48.528Z,18.88
2022-09-24T23:00:49.587Z,16.02
2022-09-24T23:03:56.187Z,17.60
2022-09-24T23:06:57.020Z,21.40
2022-09-24T23:09:57.860Z,22.35
2022-09-24T23:12:58.441Z,18.33
2022-09-24T23:16:17.222Z,18.75
2022-09-24T23:19:20.464Z,20.33
2022-09-24T23:22:22.715Z,19.45
2022-09-24T23:25:23.887Z,18.88
2022-09-24T23:28:24.745Z,17.13
2022-09-24T23:31:32.620Z,18.98
2022-09-24T23:34:33.278Z,16.15
2022-09-24T23:37:34.126Z,23.17
2022-09-24T23:40:35.085Z,22.05
2022-09-24T23:43:36.455Z,27.08
2022-09-24T23:46:38.265Z,22.17
2022-09-24T23:49:39.529Z,21.08
2022-09-24T23:52:40.361Z,22.30
2022-09-24T23:55:46.425Z,20.67
2022-09-24T23:58:48.050Z,24.92
